sensor_id;sensor_type;location;lat;lon;timestamp;P1;durP1;ratioP1;P2;durP2;ratioP2
18084;SDS011;9169;44.492;11.372;2023-02-26T00:01:44;56.63;;;34.70;;
18084;SDS011;9169;44.492;11.372;2023-02-26T00:04:12;51.53;;;34.80;;
18084;SDS011;9169;44.492;11.372;2023-02-26T00:06:41;48.07;;;33.83;;
18084;SDS011;9169;44.492;11.372;2023-02-26T00:09:18;49.33;;;33.57;;
18084;SDS011;9169;44.492;11.372;2023-02-26T00:11:47;54.00;;;34.10;;
18084;SDS011;9169;44.492;11.372;2023-02-26T00:14:19;50.67;;;34.03;;
18084;SDS011;9169;44.492;11.372;2023-02-26T00:16:49;55.27;;;34.50;;
18084;SDS011;9169;44.492;11.372;2023-02-26T00:19:22;54.60;;;34.60;;
18084;SDS011;9169;44.492;11.372;2023-02-26T00:21:51;50.70;;;35.80;;
18084;SDS011;9169;44.492;11.372;2023-02-26T00:24:20;59.03;;;33.70;;
18084;SDS011;9169;44.492;11.372;2023-02-26T00:26:50;50.73;;;35.03;;
18084;SDS011;9169;44.492;11.372;2023-02-26T00:29:20;54.63;;;32.03;;
18084;SDS011;9169;44.492;11.372;2023-02-26T00:31:49;51.90;;;33.50;;
18084;SDS011;9169;44.492;11.372;2023-02-26T00:34:18;46.97;;;32.73;;
18084;SDS011;9169;44.492;11.372;2023-02-26T00:36:49;46.27;;;32.93;;
18084;SDS011;9169;44.492;11.372;2023-02-26T00:39:30;50.40;;;33.27;;
18084;SDS011;9169;44.492;11.372;2023-02-26T00:42:06;48.23;;;32.20;;
18084;SDS011;9169;44.492;11.372;2023-02-26T00:44:36;46.97;;;33.60;;
18084;SDS011;9169;44.492;11.372;2023-02-26T00:47:07;39.37;;;28.93;;
18084;SDS011;9169;44.492;11.372;2023-02-26T00:49:45;44.83;;;30.60;;
18084;SDS011;9169;44.492;11.372;2023-02-26T00:52:19;42.57;;;29.50;;
18084;SDS011;9169;44.492;11.372;2023-02-26T00:54:56;48.20;;;31.53;;
18084;SDS011;9169;44.492;11.372;2023-02-26T00:57:24;44.10;;;31.87;;
18084;SDS011;9169;44.492;11.372;2023-02-26T00:59:54;49.10;;;31.50;;
18084;SDS011;9169;44.492;11.372;2023-02-26T01:02:23;45.10;;;31.80;;
18084;SDS011;9169;44.492;11.372;2023-02-26T01:04:52;52.53;;;32.47;;
18084;SDS011;9169;44.492;11.372;2023-02-26T01:07:22;48.00;;;33.07;;
18084;SDS011;9169;44.492;11.372;2023-02-26T01:09:51;41.80;;;32.00;;
18084;SDS011;9169;44.492;11.372;2023-02-26T01:12:20;48.80;;;34.07;;
18084;SDS011;9169;44.492;11.372;2023-02-26T01:14:50;48.67;;;33.60;;
18084;SDS011;9169;44.492;11.372;2023-02-26T01:17:22;59.93;;;35.97;;
18084;SDS011;9169;44.492;11.372;2023-02-26T01:19:57;50.47;;;34.93;;
18084;SDS011;9169;44.492;11.372;2023-02-26T01:22:32;48.30;;;35.03;;
18084;SDS011;9169;44.492;11.372;2023-02-26T01:25:06;55.57;;;36.73;;
18084;SDS011;9169;44.492;11.372;2023-02-26T01:27:37;57.10;;;38.37;;
18084;SDS011;9169;44.492;11.372;2023-02-26T01:30:06;50.90;;;36.63;;
18084;SDS011;9169;44.492;11.372;2023-02-26T01:32:40;54.87;;;36.23;;
18084;SDS011;9169;44.492;11.372;2023-02-26T01:38:03;57.03;;;39.30;;
18084;SDS011;9169;44.492;11.372;2023-02-26T01:43:44;60.63;;;39.33;;
18084;SDS011;9169;44.492;11.372;2023-02-26T01:46:21;64.10;;;42.20;;
18084;SDS011;9169;44.492;11.372;2023-02-26T01:48:55;60.77;;;40.10;;
18084;SDS011;9169;44.492;11.372;2023-02-26T01:51:42;71.90;;;43.77;;
18084;SDS011;9169;44.492;11.372;2023-02-26T01:54:17;63.73;;;41.83;;
18084;SDS011;9169;44.492;11.372;2023-02-26T01:56:48;70.20;;;44.67;;
18084;SDS011;9169;44.492;11.372;2023-02-26T01:59:18;69.30;;;44.80;;
18084;SDS011;9169;44.492;11.372;2023-02-26T02:01:51;69.30;;;42.70;;
18084;SDS011;9169;44.492;11.372;2023-02-26T02:04:21;65.33;;;44.87;;
18084;SDS011;9169;44.492;11.372;2023-02-26T02:06:51;75.23;;;45.17;;
18084;SDS011;9169;44.492;11.372;2023-02-26T02:09:21;66.33;;;41.20;;
18084;SDS011;9169;44.492;11.372;2023-02-26T02:11:59;57.63;;;42.17;;
18084;SDS011;9169;44.492;11.372;2023-02-26T02:14:38;66.70;;;44.93;;
18084;SDS011;9169;44.492;11.372;2023-02-26T02:17:16;72.27;;;43.70;;
18084;SDS011;9169;44.492;11.372;2023-02-26T02:26:01;80.10;;;44.00;;
18084;SDS011;9169;44.492;11.372;2023-02-26T02:29:05;68.53;;;45.13;;
18084;SDS011;9169;44.492;11.372;2023-02-26T02:31:53;72.67;;;44.00;;
18084;SDS011;9169;44.492;11.372;2023-02-26T02:34:28;69.00;;;45.10;;
18084;SDS011;9169;44.492;11.372;2023-02-26T02:37:03;74.83;;;48.10;;
18084;SDS011;9169;44.492;11.372;2023-02-26T02:39:38;76.80;;;47.10;;
18084;SDS011;9169;44.492;11.372;2023-02-26T02:42:15;73.37;;;48.27;;
18084;SDS011;9169;44.492;11.372;2023-02-26T02:44:48;66.93;;;45.23;;
18084;SDS011;9169;44.492;11.372;2023-02-26T02:47:22;84.20;;;48.00;;
18084;SDS011;9169;44.492;11.372;2023-02-26T02:49:55;83.57;;;50.27;;
18084;SDS011;9169;44.492;11.372;2023-02-26T02:52:30;76.40;;;46.53;;
18084;SDS011;9169;44.492;11.372;2023-02-26T02:55:04;66.17;;;43.87;;
18084;SDS011;9169;44.492;11.372;2023-02-26T02:57:38;75.33;;;46.13;;
18084;SDS011;9169;44.492;11.372;2023-02-26T03:00:11;56.13;;;39.83;;
18084;SDS011;9169;44.492;11.372;2023-02-26T03:02:46;58.53;;;41.93;;
18084;SDS011;9169;44.492;11.372;2023-02-26T03:05:19;61.30;;;41.70;;
18084;SDS011;9169;44.492;11.372;2023-02-26T03:07:49;55.00;;;37.90;;
18084;SDS011;9169;44.492;11.372;2023-02-26T03:10:21;51.23;;;37.47;;
18084;SDS011;9169;44.492;11.372;2023-02-26T03:12:49;48.57;;;34.30;;
18084;SDS011;9169;44.492;11.372;2023-02-26T03:15:21;52.47;;;37.67;;
18084;SDS011;9169;44.492;11.372;2023-02-26T03:17:58;51.53;;;38.57;;
18084;SDS011;9169;44.492;11.372;2023-02-26T03:20:34;45.63;;;35.13;;
18084;SDS011;9169;44.492;11.372;2023-02-26T03:23:10;39.80;;;30.40;;
18084;SDS011;9169;44.492;11.372;2023-02-26T03:25:47;45.63;;;32.40;;
18084;SDS011;9169;44.492;11.372;2023-02-26T03:28:21;41.87;;;32.37;;
18084;SDS011;9169;44.492;11.372;2023-02-26T03:30:56;55.83;;;38.20;;
18084;SDS011;9169;44.492;11.372;2023-02-26T03:33:32;57.23;;;40.67;;
18084;SDS011;9169;44.492;11.372;2023-02-26T03:36:09;46.80;;;33.97;;
18084;SDS011;9169;44.492;11.372;2023-02-26T03:38:50;23.03;;;16.40;;
18084;SDS011;9169;44.492;11.372;2023-02-26T03:41:24;21.30;;;13.13;;
18084;SDS011;9169;44.492;11.372;2023-02-26T03:43:57;11.20;;;7.83;;
18084;SDS011;9169;44.492;11.372;2023-02-26T03:46:28;9.60;;;3.70;;
18084;SDS011;9169;44.492;11.372;2023-02-26T03:49:03;7.07;;;3.10;;
18084;SDS011;9169;44.492;11.372;2023-02-26T03:51:35;6.13;;;2.83;;
18084;SDS011;9169;44.492;11.372;2023-02-26T03:54:26;5.33;;;2.30;;
18084;SDS011;9169;44.492;11.372;2023-02-26T03:57:17;6.17;;;2.73;;
18084;SDS011;9169;44.492;11.372;2023-02-26T04:00:05;5.30;;;2.20;;
18084;SDS011;9169;44.492;11.372;2023-02-26T04:02:44;4.93;;;2.10;;
18084;SDS011;9169;44.492;11.372;2023-02-26T04:05:22;3.60;;;1.87;;
18084;SDS011;9169;44.492;11.372;2023-02-26T04:07:53;5.87;;;2.10;;
18084;SDS011;9169;44.492;11.372;2023-02-26T04:10:24;4.70;;;1.80;;
18084;SDS011;9169;44.492;11.372;2023-02-26T04:12:58;5.30;;;2.13;;
18084;SDS011;9169;44.492;11.372;2023-02-26T04:15:27;6.13;;;1.63;;
18084;SDS011;9169;44.492;11.372;2023-02-26T04:17:56;8.43;;;2.00;;
18084;SDS011;9169;44.492;11.372;2023-02-26T04:20:26;3.70;;;1.47;;
18084;SDS011;9169;44.492;11.372;2023-02-26T04:22:55;2.40;;;1.17;;
18084;SDS011;9169;44.492;11.372;2023-02-26T04:25:23;3.63;;;1.50;;
18084;SDS011;9169;44.492;11.372;2023-02-26T04:27:52;4.80;;;1.47;;
18084;SDS011;9169;44.492;11.372;2023-02-26T04:30:21;3.80;;;1.20;;
18084;SDS011;9169;44.492;11.372;2023-02-26T04:32:49;4.00;;;1.27;;
18084;SDS011;9169;44.492;11.372;2023-02-26T04:35:18;5.47;;;1.77;;
18084;SDS011;9169;44.492;11.372;2023-02-26T04:37:48;2.53;;;1.10;;
18084;SDS011;9169;44.492;11.372;2023-02-26T04:40:16;2.27;;;1.20;;
18084;SDS011;9169;44.492;11.372;2023-02-26T04:42:45;5.70;;;1.83;;
18084;SDS011;9169;44.492;11.372;2023-02-26T04:45:21;4.97;;;1.53;;
18084;SDS011;9169;44.492;11.372;2023-02-26T04:47:49;4.07;;;1.30;;
18084;SDS011;9169;44.492;11.372;2023-02-26T04:50:18;3.77;;;1.33;;
18084;SDS011;9169;44.492;11.372;2023-02-26T04:52:51;3.80;;;1.40;;
18084;SDS011;9169;44.492;11.372;2023-02-26T04:55:21;3.83;;;1.50;;
18084;SDS011;9169;44.492;11.372;2023-02-26T04:57:50;3.83;;;1.17;;
18084;SDS011;9169;44.492;11.372;2023-02-26T05:00:23;4.23;;;1.23;;
18084;SDS011;9169;44.492;11.372;2023-02-26T05:02:52;3.47;;;1.60;;
18084;SDS011;9169;44.492;11.372;2023-02-26T05:05:20;4.53;;;1.73;;
18084;SDS011;9169;44.492;11.372;2023-02-26T05:07:49;5.30;;;1.30;;
18084;SDS011;9169;44.492;11.372;2023-02-26T05:10:21;2.57;;;1.47;;
18084;SDS011;9169;44.492;11.372;2023-02-26T05:12:50;3.20;;;1.30;;
18084;SDS011;9169;44.492;11.372;2023-02-26T05:15:19;3.40;;;1.27;;
18084;SDS011;9169;44.492;11.372;2023-02-26T05:17:48;3.07;;;1.50;;
18084;SDS011;9169;44.492;11.372;2023-02-26T05:20:16;4.67;;;1.40;;
18084;SDS011;9169;44.492;11.372;2023-02-26T05:22:45;3.97;;;1.37;;
18084;SDS011;9169;44.492;11.372;2023-02-26T05:25:14;3.90;;;1.37;;
18084;SDS011;9169;44.492;11.372;2023-02-26T05:27:44;6.83;;;1.50;;
18084;SDS011;9169;44.492;11.372;2023-02-26T05:30:13;2.90;;;1.70;;
18084;SDS011;9169;44.492;11.372;2023-02-26T05:32:43;4.20;;;1.50;;
18084;SDS011;9169;44.492;11.372;2023-02-26T05:35:12;4.07;;;1.43;;
18084;SDS011;9169;44.492;11.372;2023-02-26T05:37:41;3.70;;;1.30;;
18084;SDS011;9169;44.492;11.372;2023-02-26T05:40:10;3.57;;;1.40;;
18084;SDS011;9169;44.492;11.372;2023-02-26T05:42:39;2.70;;;1.20;;
18084;SDS011;9169;44.492;11.372;2023-02-26T05:45:09;5.30;;;1.37;;
18084;SDS011;9169;44.492;11.372;2023-02-26T05:47:38;3.10;;;1.30;;
18084;SDS011;9169;44.492;11.372;2023-02-26T05:50:07;3.00;;;1.43;;
18084;SDS011;9169;44.492;11.372;2023-02-26T05:52:37;3.47;;;1.20;;
18084;SDS011;9169;44.492;11.372;2023-02-26T05:55:06;8.60;;;1.47;;
18084;SDS011;9169;44.492;11.372;2023-02-26T05:57:36;3.17;;;1.23;;
18084;SDS011;9169;44.492;11.372;2023-02-26T06:00:05;2.67;;;1.27;;
18084;SDS011;9169;44.492;11.372;2023-02-26T06:02:42;3.10;;;1.43;;
18084;SDS011;9169;44.492;11.372;2023-02-26T06:05:11;2.87;;;1.20;;
18084;SDS011;9169;44.492;11.372;2023-02-26T06:07:40;5.10;;;1.80;;
18084;SDS011;9169;44.492;11.372;2023-02-26T06:10:09;2.40;;;1.20;;
18084;SDS011;9169;44.492;11.372;2023-02-26T06:12:38;3.73;;;1.20;;
18084;SDS011;9169;44.492;11.372;2023-02-26T06:15:08;2.47;;;1.30;;
18084;SDS011;9169;44.492;11.372;2023-02-26T06:17:37;2.97;;;1.20;;
18084;SDS011;9169;44.492;11.372;2023-02-26T06:20:08;5.30;;;1.47;;
18084;SDS011;9169;44.492;11.372;2023-02-26T06:22:38;5.63;;;1.17;;
18084;SDS011;9169;44.492;11.372;2023-02-26T06:25:07;6.43;;;2.23;;
18084;SDS011;9169;44.492;11.372;2023-02-26T06:27:36;5.67;;;1.37;;
18084;SDS011;9169;44.492;11.372;2023-02-26T06:30:05;3.27;;;1.23;;
18084;SDS011;9169;44.492;11.372;2023-02-26T06:32:34;4.10;;;1.40;;
18084;SDS011;9169;44.492;11.372;2023-02-26T06:35:03;4.40;;;1.40;;
18084;SDS011;9169;44.492;11.372;2023-02-26T06:37:34;3.47;;;1.40;;
18084;SDS011;9169;44.492;11.372;2023-02-26T06:40:05;8.17;;;1.60;;
18084;SDS011;9169;44.492;11.372;2023-02-26T06:42:36;7.20;;;1.80;;
18084;SDS011;9169;44.492;11.372;2023-02-26T06:45:05;8.90;;;1.50;;
18084;SDS011;9169;44.492;11.372;2023-02-26T06:47:34;4.10;;;1.30;;
18084;SDS011;9169;44.492;11.372;2023-02-26T06:50:03;4.53;;;1.50;;
18084;SDS011;9169;44.492;11.372;2023-02-26T06:52:31;4.60;;;1.27;;
18084;SDS011;9169;44.492;11.372;2023-02-26T06:55:02;4.60;;;1.40;;
18084;SDS011;9169;44.492;11.372;2023-02-26T06:57:31;4.33;;;1.37;;
18084;SDS011;9169;44.492;11.372;2023-02-26T06:59:59;2.30;;;1.20;;
18084;SDS011;9169;44.492;11.372;2023-02-26T07:02:28;3.77;;;1.47;;
18084;SDS011;9169;44.492;11.372;2023-02-26T07:04:56;4.50;;;1.40;;
18084;SDS011;9169;44.492;11.372;2023-02-26T07:07:25;6.27;;;1.23;;
18084;SDS011;9169;44.492;11.372;2023-02-26T07:09:55;3.50;;;1.10;;
18084;SDS011;9169;44.492;11.372;2023-02-26T07:12:23;3.07;;;1.60;;
18084;SDS011;9169;44.492;11.372;2023-02-26T07:14:52;4.07;;;1.50;;
18084;SDS011;9169;44.492;11.372;2023-02-26T07:17:21;3.87;;;1.57;;
18084;SDS011;9169;44.492;11.372;2023-02-26T07:19:50;4.83;;;1.50;;
18084;SDS011;9169;44.492;11.372;2023-02-26T07:22:19;3.67;;;1.40;;
18084;SDS011;9169;44.492;11.372;2023-02-26T07:24:48;5.50;;;1.67;;
18084;SDS011;9169;44.492;11.372;2023-02-26T07:27:18;2.63;;;1.20;;
18084;SDS011;9169;44.492;11.372;2023-02-26T07:29:46;5.60;;;1.50;;
18084;SDS011;9169;44.492;11.372;2023-02-26T07:32:15;7.20;;;1.63;;
18084;SDS011;9169;44.492;11.372;2023-02-26T07:34:43;3.50;;;1.83;;
18084;SDS011;9169;44.492;11.372;2023-02-26T07:37:12;3.33;;;1.70;;
18084;SDS011;9169;44.492;11.372;2023-02-26T07:39:40;7.93;;;1.83;;
18084;SDS011;9169;44.492;11.372;2023-02-26T07:42:09;5.47;;;2.07;;
18084;SDS011;9169;44.492;11.372;2023-02-26T07:44:42;5.07;;;1.40;;
18084;SDS011;9169;44.492;11.372;2023-02-26T07:47:10;2.83;;;1.30;;
18084;SDS011;9169;44.492;11.372;2023-02-26T07:49:39;4.73;;;1.67;;
18084;SDS011;9169;44.492;11.372;2023-02-26T07:52:08;4.53;;;1.60;;
18084;SDS011;9169;44.492;11.372;2023-02-26T07:54:36;3.40;;;1.70;;
18084;SDS011;9169;44.492;11.372;2023-02-26T07:57:05;6.23;;;1.83;;
18084;SDS011;9169;44.492;11.372;2023-02-26T07:59:33;5.00;;;1.70;;
18084;SDS011;9169;44.492;11.372;2023-02-26T08:02:03;8.13;;;1.90;;
18084;SDS011;9169;44.492;11.372;2023-02-26T08:04:32;9.60;;;2.27;;
18084;SDS011;9169;44.492;11.372;2023-02-26T08:07:00;8.03;;;2.53;;
18084;SDS011;9169;44.492;11.372;2023-02-26T08:09:29;5.43;;;1.83;;
18084;SDS011;9169;44.492;11.372;2023-02-26T08:11:57;5.10;;;1.77;;
18084;SDS011;9169;44.492;11.372;2023-02-26T08:14:26;4.20;;;1.63;;
18084;SDS011;9169;44.492;11.372;2023-02-26T08:16:54;6.07;;;2.33;;
18084;SDS011;9169;44.492;11.372;2023-02-26T08:19:24;4.07;;;1.43;;
18084;SDS011;9169;44.492;11.372;2023-02-26T08:21:53;8.80;;;2.17;;
18084;SDS011;9169;44.492;11.372;2023-02-26T08:24:21;6.57;;;2.30;;
18084;SDS011;9169;44.492;11.372;2023-02-26T08:26:50;3.03;;;1.60;;
18084;SDS011;9169;44.492;11.372;2023-02-26T08:29:19;4.90;;;1.63;;
18084;SDS011;9169;44.492;11.372;2023-02-26T08:31:47;5.23;;;2.10;;
18084;SDS011;9169;44.492;11.372;2023-02-26T08:34:16;5.47;;;1.90;;
18084;SDS011;9169;44.492;11.372;2023-02-26T08:36:46;3.97;;;1.70;;
18084;SDS011;9169;44.492;11.372;2023-02-26T08:39:16;11.23;;;1.90;;
18084;SDS011;9169;44.492;11.372;2023-02-26T08:41:44;4.30;;;2.47;;
18084;SDS011;9169;44.492;11.372;2023-02-26T08:44:14;3.27;;;1.73;;
18084;SDS011;9169;44.492;11.372;2023-02-26T08:46:42;7.87;;;3.53;;
18084;SDS011;9169;44.492;11.372;2023-02-26T08:49:11;3.60;;;2.07;;
18084;SDS011;9169;44.492;11.372;2023-02-26T08:51:40;7.13;;;2.13;;
18084;SDS011;9169;44.492;11.372;2023-02-26T08:54:10;7.03;;;1.63;;
18084;SDS011;9169;44.492;11.372;2023-02-26T08:56:39;6.83;;;3.80;;
18084;SDS011;9169;44.492;11.372;2023-02-26T08:59:07;9.20;;;1.90;;
18084;SDS011;9169;44.492;11.372;2023-02-26T09:01:38;6.40;;;1.90;;
18084;SDS011;9169;44.492;11.372;2023-02-26T09:04:07;7.23;;;2.40;;
18084;SDS011;9169;44.492;11.372;2023-02-26T09:06:35;9.30;;;1.83;;
18084;SDS011;9169;44.492;11.372;2023-02-26T09:09:04;9.30;;;2.10;;
18084;SDS011;9169;44.492;11.372;2023-02-26T09:11:34;5.70;;;2.00;;
18084;SDS011;9169;44.492;11.372;2023-02-26T09:14:03;5.60;;;2.00;;
18084;SDS011;9169;44.492;11.372;2023-02-26T09:16:32;10.97;;;3.80;;
18084;SDS011;9169;44.492;11.372;2023-02-26T09:19:03;9.47;;;2.07;;
18084;SDS011;9169;44.492;11.372;2023-02-26T09:21:32;6.87;;;2.50;;
18084;SDS011;9169;44.492;11.372;2023-02-26T09:24:01;10.40;;;2.30;;
18084;SDS011;9169;44.492;11.372;2023-02-26T09:26:31;9.73;;;2.40;;
18084;SDS011;9169;44.492;11.372;2023-02-26T09:29:01;8.43;;;1.90;;
18084;SDS011;9169;44.492;11.372;2023-02-26T09:31:29;6.07;;;2.23;;
18084;SDS011;9169;44.492;11.372;2023-02-26T09:33:59;7.87;;;2.30;;
18084;SDS011;9169;44.492;11.372;2023-02-26T09:36:28;6.60;;;1.77;;
18084;SDS011;9169;44.492;11.372;2023-02-26T09:38:57;8.60;;;2.00;;
18084;SDS011;9169;44.492;11.372;2023-02-26T09:41:27;4.93;;;1.60;;
18084;SDS011;9169;44.492;11.372;2023-02-26T09:44:10;10.40;;;2.70;;
18084;SDS011;9169;44.492;11.372;2023-02-26T09:46:47;8.33;;;2.07;;
18084;SDS011;9169;44.492;11.372;2023-02-26T09:49:24;10.60;;;2.17;;
18084;SDS011;9169;44.492;11.372;2023-02-26T09:52:02;8.13;;;2.13;;
18084;SDS011;9169;44.492;11.372;2023-02-26T09:54:41;7.00;;;2.00;;
18084;SDS011;9169;44.492;11.372;2023-02-26T09:57:14;4.40;;;1.60;;
18084;SDS011;9169;44.492;11.372;2023-02-26T09:59:54;9.53;;;2.03;;
18084;SDS011;9169;44.492;11.372;2023-02-26T10:02:23;5.90;;;1.87;;
18084;SDS011;9169;44.492;11.372;2023-02-26T10:05:06;6.87;;;1.80;;
18084;SDS011;9169;44.492;11.372;2023-02-26T10:07:45;9.00;;;2.30;;
18084;SDS011;9169;44.492;11.372;2023-02-26T10:10:24;4.43;;;1.83;;
18084;SDS011;9169;44.492;11.372;2023-02-26T10:12:59;10.17;;;2.27;;
18084;SDS011;9169;44.492;11.372;2023-02-26T10:15:30;6.60;;;2.10;;
18084;SDS011;9169;44.492;11.372;2023-02-26T10:18:05;5.03;;;2.33;;
18084;SDS011;9169;44.492;11.372;2023-02-26T10:20:38;5.00;;;1.73;;
18084;SDS011;9169;44.492;11.372;2023-02-26T10:23:16;8.80;;;2.00;;
18084;SDS011;9169;44.492;11.372;2023-02-26T10:25:51;8.67;;;2.20;;
18084;SDS011;9169;44.492;11.372;2023-02-26T10:28:27;4.10;;;1.87;;
18084;SDS011;9169;44.492;11.372;2023-02-26T10:31:08;7.60;;;3.97;;
18084;SDS011;9169;44.492;11.372;2023-02-26T10:33:45;4.20;;;2.03;;
18084;SDS011;9169;44.492;11.372;2023-02-26T10:36:22;7.00;;;1.97;;
18084;SDS011;9169;44.492;11.372;2023-02-26T10:38:57;4.93;;;1.90;;
18084;SDS011;9169;44.492;11.372;2023-02-26T10:41:30;8.40;;;2.33;;
18084;SDS011;9169;44.492;11.372;2023-02-26T10:44:02;6.20;;;1.97;;
18084;SDS011;9169;44.492;11.372;2023-02-26T10:46:42;9.20;;;2.30;;
18084;SDS011;9169;44.492;11.372;2023-02-26T10:49:23;6.60;;;1.90;;
18084;SDS011;9169;44.492;11.372;2023-02-26T10:52:13;6.10;;;2.00;;
18084;SDS011;9169;44.492;11.372;2023-02-26T10:54:45;10.23;;;2.37;;
18084;SDS011;9169;44.492;11.372;2023-02-26T10:57:22;11.70;;;4.07;;
18084;SDS011;9169;44.492;11.372;2023-02-26T10:59:54;7.50;;;2.63;;
18084;SDS011;9169;44.492;11.372;2023-02-26T11:02:33;7.67;;;2.97;;
18084;SDS011;9169;44.492;11.372;2023-02-26T11:05:04;13.33;;;2.23;;
18084;SDS011;9169;44.492;11.372;2023-02-26T11:07:35;9.70;;;2.70;;
18084;SDS011;9169;44.492;11.372;2023-02-26T11:10:11;7.60;;;2.30;;
18084;SDS011;9169;44.492;11.372;2023-02-26T11:12:41;12.37;;;2.13;;
18084;SDS011;9169;44.492;11.372;2023-02-26T11:15:11;11.30;;;2.43;;
18084;SDS011;9169;44.492;11.372;2023-02-26T11:17:43;9.90;;;2.50;;
18084;SDS011;9169;44.492;11.372;2023-02-26T11:20:19;12.53;;;2.50;;
18084;SDS011;9169;44.492;11.372;2023-02-26T11:22:57;16.90;;;3.17;;
18084;SDS011;9169;44.492;11.372;2023-02-26T11:25:29;10.03;;;2.60;;
18084;SDS011;9169;44.492;11.372;2023-02-26T11:28:03;7.63;;;2.57;;
18084;SDS011;9169;44.492;11.372;2023-02-26T11:30:34;11.83;;;2.90;;
18084;SDS011;9169;44.492;11.372;2023-02-26T11:33:15;4.73;;;2.10;;
18084;SDS011;9169;44.492;11.372;2023-02-26T11:35:45;8.53;;;3.03;;
18084;SDS011;9169;44.492;11.372;2023-02-26T11:38:20;10.43;;;2.70;;
18084;SDS011;9169;44.492;11.372;2023-02-26T11:40:53;7.60;;;2.37;;
18084;SDS011;9169;44.492;11.372;2023-02-26T11:43:24;9.40;;;3.30;;
18084;SDS011;9169;44.492;11.372;2023-02-26T11:45:54;14.30;;;2.73;;
18084;SDS011;9169;44.492;11.372;2023-02-26T11:48:31;10.93;;;3.17;;
18084;SDS011;9169;44.492;11.372;2023-02-26T11:51:05;11.47;;;3.00;;
18084;SDS011;9169;44.492;11.372;2023-02-26T11:53:40;15.30;;;3.10;;
18084;SDS011;9169;44.492;11.372;2023-02-26T11:56:21;7.93;;;3.37;;
18084;SDS011;9169;44.492;11.372;2023-02-26T11:58:53;12.90;;;2.60;;
18084;SDS011;9169;44.492;11.372;2023-02-26T12:01:25;13.57;;;2.40;;
18084;SDS011;9169;44.492;11.372;2023-02-26T12:03:58;10.33;;;2.53;;
18084;SDS011;9169;44.492;11.372;2023-02-26T12:06:28;11.90;;;2.90;;
18084;SDS011;9169;44.492;11.372;2023-02-26T12:08:57;15.00;;;2.70;;
18084;SDS011;9169;44.492;11.372;2023-02-26T12:14:43;7.60;;;3.17;;
18084;SDS011;9169;44.492;11.372;2023-02-26T12:17:25;8.60;;;3.20;;
18084;SDS011;9169;44.492;11.372;2023-02-26T12:20:02;10.87;;;2.73;;
18084;SDS011;9169;44.492;11.372;2023-02-26T12:22:47;13.60;;;3.13;;
18084;SDS011;9169;44.492;11.372;2023-02-26T12:25:27;10.23;;;3.50;;
18084;SDS011;9169;44.492;11.372;2023-02-26T12:31:11;14.77;;;3.70;;
18084;SDS011;9169;44.492;11.372;2023-02-26T12:34:01;7.87;;;2.60;;
18084;SDS011;9169;44.492;11.372;2023-02-26T12:36:55;8.57;;;2.40;;
18084;SDS011;9169;44.492;11.372;2023-02-26T12:39:40;7.80;;;2.73;;
18084;SDS011;9169;44.492;11.372;2023-02-26T12:42:19;10.93;;;3.23;;
18084;SDS011;9169;44.492;11.372;2023-02-26T12:45:11;10.43;;;2.33;;
18084;SDS011;9169;44.492;11.372;2023-02-26T12:48:16;8.90;;;3.13;;
18084;SDS011;9169;44.492;11.372;2023-02-26T12:51:06;10.10;;;2.50;;
18084;SDS011;9169;44.492;11.372;2023-02-26T12:53:49;10.13;;;2.50;;
18084;SDS011;9169;44.492;11.372;2023-02-26T12:56:37;6.23;;;2.63;;
18084;SDS011;9169;44.492;11.372;2023-02-26T12:59:18;8.93;;;2.50;;
18084;SDS011;9169;44.492;11.372;2023-02-26T13:02:28;7.53;;;2.30;;
18084;SDS011;9169;44.492;11.372;2023-02-26T13:05:23;7.17;;;2.80;;
18084;SDS011;9169;44.492;11.372;2023-02-26T13:08:06;8.10;;;2.40;;
18084;SDS011;9169;44.492;11.372;2023-02-26T13:10:46;5.23;;;1.70;;
18084;SDS011;9169;44.492;11.372;2023-02-26T13:13:35;5.80;;;2.40;;
18084;SDS011;9169;44.492;11.372;2023-02-26T13:16:28;4.97;;;2.00;;
18084;SDS011;9169;44.492;11.372;2023-02-26T13:19:07;6.20;;;1.93;;
18084;SDS011;9169;44.492;11.372;2023-02-26T13:21:45;8.80;;;2.23;;
18084;SDS011;9169;44.492;11.372;2023-02-26T13:24:18;7.13;;;2.00;;
18084;SDS011;9169;44.492;11.372;2023-02-26T13:26:53;5.77;;;1.93;;
18084;SDS011;9169;44.492;11.372;2023-02-26T13:29:23;7.47;;;2.37;;
18084;SDS011;9169;44.492;11.372;2023-02-26T13:31:56;11.07;;;2.63;;
18084;SDS011;9169;44.492;11.372;2023-02-26T13:34:34;9.80;;;2.40;;
18084;SDS011;9169;44.492;11.372;2023-02-26T13:37:11;6.93;;;2.80;;
18084;SDS011;9169;44.492;11.372;2023-02-26T13:39:49;5.63;;;2.00;;
18084;SDS011;9169;44.492;11.372;2023-02-26T13:42:40;7.87;;;2.30;;
18084;SDS011;9169;44.492;11.372;2023-02-26T13:45:20;10.63;;;2.20;;
18084;SDS011;9169;44.492;11.372;2023-02-26T13:47:57;11.57;;;3.53;;
18084;SDS011;9169;44.492;11.372;2023-02-26T13:50:40;11.53;;;2.43;;
18084;SDS011;9169;44.492;11.372;2023-02-26T13:53:33;13.20;;;3.20;;
18084;SDS011;9169;44.492;11.372;2023-02-26T13:56:19;12.47;;;2.77;;
18084;SDS011;9169;44.492;11.372;2023-02-26T13:58:52;12.83;;;3.50;;
18084;SDS011;9169;44.492;11.372;2023-02-26T14:01:27;9.10;;;2.80;;
18084;SDS011;9169;44.492;11.372;2023-02-26T14:04:06;13.90;;;3.50;;
18084;SDS011;9169;44.492;11.372;2023-02-26T14:06:50;6.50;;;2.70;;
18084;SDS011;9169;44.492;11.372;2023-02-26T14:09:42;7.83;;;2.70;;
18084;SDS011;9169;44.492;11.372;2023-02-26T14:12:22;8.57;;;2.60;;
18084;SDS011;9169;44.492;11.372;2023-02-26T14:18:18;6.07;;;2.03;;
18084;SDS011;9169;44.492;11.372;2023-02-26T14:20:53;12.63;;;2.17;;
18084;SDS011;9169;44.492;11.372;2023-02-26T14:24:05;8.70;;;2.40;;
18084;SDS011;9169;44.492;11.372;2023-02-26T14:26:43;10.17;;;3.70;;
18084;SDS011;9169;44.492;11.372;2023-02-26T14:29:16;8.10;;;2.40;;
18084;SDS011;9169;44.492;11.372;2023-02-26T14:32:05;6.47;;;2.27;;
18084;SDS011;9169;44.492;11.372;2023-02-26T14:34:50;9.97;;;4.13;;
18084;SDS011;9169;44.492;11.372;2023-02-26T14:37:21;6.87;;;2.60;;
18084;SDS011;9169;44.492;11.372;2023-02-26T14:39:53;8.63;;;2.40;;
18084;SDS011;9169;44.492;11.372;2023-02-26T14:42:28;8.60;;;2.37;;
18084;SDS011;9169;44.492;11.372;2023-02-26T14:45:08;6.47;;;2.93;;
18084;SDS011;9169;44.492;11.372;2023-02-26T14:47:46;7.73;;;2.10;;
18084;SDS011;9169;44.492;11.372;2023-02-26T14:50:20;8.07;;;2.57;;
18084;SDS011;9169;44.492;11.372;2023-02-26T14:56:04;6.43;;;2.20;;
18084;SDS011;9169;44.492;11.372;2023-02-26T14:58:43;6.73;;;2.70;;
18084;SDS011;9169;44.492;11.372;2023-02-26T15:01:31;12.77;;;2.50;;
18084;SDS011;9169;44.492;11.372;2023-02-26T15:04:17;11.87;;;3.40;;
18084;SDS011;9169;44.492;11.372;2023-02-26T15:07:02;8.40;;;2.53;;
18084;SDS011;9169;44.492;11.372;2023-02-26T15:09:45;9.60;;;2.93;;
18084;SDS011;9169;44.492;11.372;2023-02-26T15:12:30;6.60;;;2.67;;
18084;SDS011;9169;44.492;11.372;2023-02-26T15:18:05;8.40;;;3.60;;
18084;SDS011;9169;44.492;11.372;2023-02-26T15:20:49;8.00;;;2.90;;
18084;SDS011;9169;44.492;11.372;2023-02-26T15:23:30;5.20;;;2.30;;
18084;SDS011;9169;44.492;11.372;2023-02-26T15:26:06;4.90;;;2.10;;
18084;SDS011;9169;44.492;11.372;2023-02-26T15:28:47;5.47;;;2.47;;
18084;SDS011;9169;44.492;11.372;2023-02-26T15:31:18;6.70;;;2.70;;
18084;SDS011;9169;44.492;11.372;2023-02-26T15:33:48;9.67;;;3.23;;
18084;SDS011;9169;44.492;11.372;2023-02-26T15:36:18;12.10;;;2.70;;
18084;SDS011;9169;44.492;11.372;2023-02-26T15:38:52;8.23;;;2.60;;
18084;SDS011;9169;44.492;11.372;2023-02-26T15:41:22;5.40;;;2.30;;
18084;SDS011;9169;44.492;11.372;2023-02-26T15:43:54;12.23;;;2.87;;
18084;SDS011;9169;44.492;11.372;2023-02-26T15:46:27;9.13;;;3.40;;
18084;SDS011;9169;44.492;11.372;2023-02-26T15:49:00;7.17;;;3.40;;